createdAt,value
2018-07-07T00:00:12.542Z,101450.52
2018-07-07T00:03:18.315Z,101454.01
2018-07-07T00:06:23.406Z,101453.26
2018-07-07T00:09:28.554Z,101452.80
2018-07-07T00:12:33.403Z,101451.05
2018-07-07T00:15:39.309Z,101450.97
2018-07-07T00:18:44.975Z,101454.92
2018-07-07T00:21:50.387Z,101453.09
2018-07-07T00:24:56.081Z,101453.34
2018-07-07T00:28:01.190Z,101456.05
2018-07-07T00:31:06.613Z,101454.63
2018-07-07T00:34:12.788Z,101454.77
2018-07-07T00:37:19.007Z,101462.75
2018-07-07T00:40:25.302Z,101458.33
2018-07-07T00:43:30.736Z,101462.21
2018-07-07T00:46:37.117Z,101462.75
2018-07-07T00:49:43.366Z,101461.84
2018-07-07T00:52:48.477Z,101462.98
2018-07-07T00:55:54.202Z,101465.41
2018-07-07T00:58:59.777Z,101461.45
2018-07-07T01:02:09.052Z,101472.23
2018-07-07T01:05:26.183Z,101464.95
2018-07-07T01:08:31.841Z,101469.28
2018-07-07T01:11:37.483Z,101467.70
2018-07-07T01:14:43.741Z,101466.02
2018-07-07T01:17:48.595Z,101473.69
2018-07-07T01:20:54.457Z,101469.73
2018-07-07T01:24:00.577Z,101471.33
2018-07-07T01:27:05.682Z,101482.56
2018-07-07T01:30:11.946Z,101471.56
2018-07-07T01:33:17.047Z,101468.69
2018-07-07T01:36:22.757Z,101464.73
2018-07-07T01:39:27.898Z,101459.41
2018-07-07T01:42:33.946Z,101465.41
2018-07-07T01:45:40.088Z,101463.73
2018-07-07T01:48:45.977Z,101462.59
2018-07-07T01:51:51.717Z,101454.31
2018-07-07T01:54:57.745Z,101462.97
2018-07-07T01:58:03.194Z,101459.56
2018-07-07T02:01:08.982Z,101460.31
2018-07-07T02:04:14.086Z,101459.18
2018-07-07T02:07:19.897Z,101457.13
2018-07-07T02:10:26.924Z,101457.59
2018-07-07T02:13:32.705Z,101457.05
2018-07-07T02:16:37.797Z,101449.98
2018-07-07T02:19:44.254Z,101461.55
2018-07-07T02:22:50.280Z,101470.50
2018-07-07T02:25:56.415Z,101466.25
2018-07-07T02:29:01.858Z,101464.05
2018-07-07T02:32:08.153Z,101471.09
2018-07-07T02:35:13.274Z,101471.09
2018-07-07T02:38:18.431Z,101471.41
2018-07-07T02:41:23.693Z,101467.08
2018-07-07T02:44:29.238Z,101468.81
2018-07-07T02:47:34.330Z,101466.84
2018-07-07T02:50:39.794Z,101458.42
2018-07-07T02:53:47.197Z,101472.16
2018-07-07T02:56:52.956Z,101468.75
2018-07-07T02:59:58.961Z,101474.20
2018-07-07T03:03:05.535Z,101473.83
2018-07-07T03:06:11.492Z,101475.34
2018-07-07T03:09:17.657Z,101473.67
2018-07-07T03:12:23.264Z,101481.50
2018-07-07T03:15:29.069Z,101479.91
2018-07-07T03:18:35.019Z,101479.75
2018-07-07T03:21:40.559Z,101484.45
2018-07-07T03:24:46.381Z,101494.48
2018-07-07T03:27:52.281Z,101492.42
2018-07-07T03:30:57.722Z,101495.71
2018-07-07T03:34:03.576Z,101495.41
2018-07-07T03:37:08.717Z,101500.02
2018-07-07T03:40:13.917Z,101500.41
2018-07-07T03:43:20.358Z,101499.66
2018-07-07T03:46:27.369Z,101499.73
2018-07-07T03:49:33.429Z,101507.84
2018-07-07T03:52:39.811Z,101507.03
2018-07-07T03:55:45.508Z,101510.73
2018-07-07T03:58:50.422Z,101509.13
2018-07-07T04:01:55.408Z,101509.97
2018-07-07T04:05:00.809Z,101505.41
2018-07-07T04:08:07.590Z,101497.44
2018-07-07T04:11:13.045Z,101507.03
2018-07-07T04:14:18.145Z,101510.11
2018-07-07T04:17:23.857Z,101513.03
2018-07-07T04:20:28.901Z,101513.16
2018-07-07T04:23:34.658Z,101513.61
2018-07-07T04:26:39.748Z,101518.31
2018-07-07T04:29:47.077Z,101518.65
2018-07-07T04:32:52.617Z,101515.22
2018-07-07T04:35:59.977Z,101515.97
2018-07-07T04:39:06.542Z,101515.84
2018-07-07T04:42:12.258Z,101514.69
2018-07-07T04:45:17.333Z,101522.23
2018-07-07T04:48:23.924Z,101510.21
2018-07-07T04:51:30.194Z,101509.16
2018-07-07T04:54:36.474Z,101507.87
2018-07-07T04:57:42.102Z,101503.38
2018-07-07T05:00:47.614Z,101508.77
2018-07-07T05:03:54.457Z,101509.17
2018-07-07T05:07:00.742Z,101512.96
2018-07-07T05:10:06.473Z,101518.72
2018-07-07T05:13:11.880Z,101507.72
2018-07-07T05:16:17.991Z,101514.92
2018-07-07T05:19:24.021Z,101515.89
2018-07-07T05:22:29.110Z,101515.80
2018-07-07T05:25:35.611Z,101513.77
2018-07-07T05:28:42.868Z,101516.13
2018-07-07T05:31:48.885Z,101521.17
2018-07-07T05:34:54.177Z,101524.87
2018-07-07T05:37:59.830Z,101519.48
2018-07-07T05:41:05.498Z,101521.45
2018-07-07T05:44:11.604Z,101507.98
2018-07-07T05:47:16.696Z,101509.52
2018-07-07T05:50:22.833Z,101515.27
2018-07-07T05:53:27.990Z,101515.09
2018-07-07T05:56:33.485Z,101519.72
2018-07-07T05:59:38.316Z,101515.70
2018-07-07T06:02:45.533Z,101517.58
2018-07-07T06:05:52.226Z,101511.78
2018-07-07T06:08:59.530Z,101524.48
2018-07-07T06:12:06.448Z,101508.80
2018-07-07T06:15:13.381Z,101514.63
2018-07-07T06:18:19.413Z,101524.75
2018-07-07T06:21:25.665Z,101529.75
2018-07-07T06:24:31.587Z,101536.51
2018-07-07T06:27:37.065Z,101535.73
2018-07-07T06:30:43.073Z,101535.93
2018-07-07T06:33:48.156Z,101531.82
2018-07-07T06:36:53.284Z,101542.37
2018-07-07T06:39:58.833Z,101530.87
2018-07-07T06:43:03.937Z,101530.23
2018-07-07T06:46:10.891Z,101536.44
2018-07-07T06:49:16.594Z,101542.21
2018-07-07T06:52:21.720Z,101533.72
2018-07-07T06:55:31.079Z,101533.57
2018-07-07T06:58:36.519Z,101538.02
2018-07-07T07:01:42.496Z,101542.53
2018-07-07T07:04:48.101Z,101546.98
2018-07-07T07:07:53.447Z,101538.48
2018-07-07T07:11:00.725Z,101542.49
2018-07-07T07:14:06.492Z,101547.77
2018-07-07T07:17:11.581Z,101550.58
2018-07-07T07:20:17.169Z,101541.61
2018-07-07T07:23:23.658Z,101549.52
2018-07-07T07:26:30.406Z,101555.62
2018-07-07T07:29:35.502Z,101556.58
2018-07-07T07:32:41.124Z,101557.07
2018-07-07T07:35:45.987Z,101557.16
2018-07-07T07:38:50.826Z,101557.19
2018-07-07T07:41:55.936Z,101556.34
2018-07-07T07:45:01.290Z,101560.62
2018-07-07T07:48:07.525Z,101570.19
2018-07-07T07:51:12.629Z,101565.09
2018-07-07T07:54:17.788Z,101559.36
2018-07-07T07:57:22.590Z,101551.31
2018-07-07T08:00:27.729Z,101554.66
2018-07-07T08:03:32.837Z,101542.99
2018-07-07T08:06:37.906Z,101546.39
2018-07-07T08:09:43.005Z,101549.83
2018-07-07T08:12:48.990Z,101555.85
2018-07-07T08:15:54.366Z,101556.59
2018-07-07T08:19:00.542Z,101555.25
2018-07-07T08:22:05.986Z,101556.08
2018-07-07T08:25:11.897Z,101554.58
2018-07-07T08:28:17.374Z,101548.44
2018-07-07T08:31:24.425Z,101551.28
2018-07-07T08:34:30.457Z,101545.14
2018-07-07T08:37:36.503Z,101550.58
2018-07-07T08:40:42.916Z,101547.02
2018-07-07T08:43:48.620Z,101549.60
2018-07-07T08:46:54.054Z,101552.88
2018-07-07T08:49:59.166Z,101549.30
2018-07-07T08:53:04.825Z,101544.22
2018-07-07T08:56:10.785Z,101545.38
2018-07-07T08:59:18.104Z,101541.70
2018-07-07T09:02:23.857Z,101554.45
2018-07-07T09:05:28.998Z,101558.64
2018-07-07T09:08:34.133Z,101559.70
2018-07-07T09:11:39.588Z,101558.50
2018-07-07T09:14:45.624Z,101558.23
2018-07-07T09:17:51.153Z,101555.34
2018-07-07T09:20:57.067Z,101558.39
2018-07-07T09:24:02.198Z,101562.02
2018-07-07T09:27:07.290Z,101556.29
2018-07-07T09:30:12.403Z,101549.83
2018-07-07T09:33:17.937Z,101546.25
2018-07-07T09:36:23.054Z,101549.27
2018-07-07T09:39:28.150Z,101550.38
2018-07-07T09:42:33.293Z,101551.36
2018-07-07T09:45:38.413Z,101541.80
2018-07-07T09:48:43.785Z,101545.86
2018-07-07T09:51:48.898Z,101541.14
2018-07-07T09:54:54.356Z,101537.03
2018-07-07T09:57:59.470Z,101535.76
2018-07-07T10:01:05.007Z,101542.88
2018-07-07T10:04:11.061Z,101538.59
2018-07-07T10:07:18.711Z,101556.02
2018-07-07T10:10:25.565Z,101561.92
2018-07-07T10:13:32.000Z,101560.42
2018-07-07T10:16:39.209Z,101556.49
2018-07-07T10:19:44.967Z,101558.80
2018-07-07T10:22:50.298Z,101550.16
2018-07-07T10:25:56.310Z,101555.27
2018-07-07T10:29:01.409Z,101549.11
2018-07-07T10:32:06.883Z,101565.02
2018-07-07T10:35:11.941Z,101556.09
2018-07-07T10:38:19.072Z,101548.61
2018-07-07T10:41:25.058Z,101543.85
2018-07-07T10:44:30.514Z,101546.94
2018-07-07T10:47:35.953Z,101544.77
2018-07-07T10:50:41.041Z,101541.20
2018-07-07T10:53:45.874Z,101565.55
2018-07-07T10:56:51.430Z,101565.52
2018-07-07T10:59:58.494Z,101571.79
2018-07-07T11:03:04.097Z,101571.66
2018-07-07T11:06:10.127Z,101569.16
2018-07-07T11:09:15.885Z,101570.57
2018-07-07T11:12:22.143Z,101572.09
2018-07-07T11:15:27.650Z,101568.52
2018-07-07T11:18:33.898Z,101567.55
2018-07-07T11:21:39.913Z,101564.94
2018-07-07T11:24:45.546Z,101554.59
2018-07-07T11:27:56.432Z,101561.36
2018-07-07T11:31:01.557Z,101560.06
2018-07-07T11:34:08.218Z,101559.11
2018-07-07T11:37:14.231Z,101569.92
2018-07-07T11:40:19.330Z,101567.52
2018-07-07T11:43:25.009Z,101563.81
2018-07-07T11:46:30.387Z,101565.81
2018-07-07T11:49:36.387Z,101569.03
2018-07-07T11:52:42.402Z,101561.61
2018-07-07T11:55:47.849Z,101558.86
2018-07-07T11:58:52.958Z,101553.13
2018-07-07T12:01:59.292Z,101561.88
2018-07-07T12:05:05.512Z,101561.62
2018-07-07T12:08:13.990Z,101569.93
2018-07-07T12:11:18.446Z,101563.33
2018-07-07T12:14:24.610Z,101558.20
2018-07-07T12:17:30.506Z,101565.17
2018-07-07T12:20:36.861Z,101557.42
2018-07-07T12:23:42.720Z,101555.50
2018-07-07T12:26:49.113Z,101553.78
2018-07-07T12:29:55.524Z,101566.16
2018-07-07T12:33:01.202Z,101555.89
2018-07-07T12:36:08.237Z,101559.41
2018-07-07T12:39:14.154Z,101560.93
2018-07-07T12:42:19.389Z,101553.77
2018-07-07T12:45:25.328Z,101553.00
2018-07-07T12:48:30.422Z,101552.28
2018-07-07T12:51:35.867Z,101550.55
2018-07-07T12:54:40.990Z,101550.76
2018-07-07T12:57:46.199Z,101555.96
2018-07-07T13:00:52.550Z,101556.17
2018-07-07T13:03:57.689Z,101563.16
2018-07-07T13:07:02.873Z,101557.50
2018-07-07T13:10:09.169Z,101556.02
2018-07-07T13:13:15.109Z,101559.86
2018-07-07T13:16:21.573Z,101562.92
2018-07-07T13:19:27.410Z,101551.95
2018-07-07T13:22:33.371Z,101549.53
2018-07-07T13:25:38.500Z,101552.36
2018-07-07T13:28:43.839Z,101555.53
2018-07-07T13:31:49.883Z,101546.09
2018-07-07T13:34:54.983Z,101558.92
2018-07-07T13:38:00.196Z,101559.50
2018-07-07T13:41:07.401Z,101564.16
2018-07-07T13:44:12.770Z,101571.39
2018-07-07T13:47:17.985Z,101563.73
2018-07-07T13:50:23.153Z,101568.69
2018-07-07T13:53:28.278Z,101561.39
2018-07-07T13:56:33.813Z,101561.94
2018-07-07T13:59:39.673Z,101562.63
2018-07-07T14:02:45.730Z,101565.92
2018-07-07T14:05:52.971Z,101576.28
2018-07-07T14:09:00.036Z,101577.10
2018-07-07T14:12:05.273Z,101578.50
2018-07-07T14:15:10.806Z,101577.88
2018-07-07T14:18:16.829Z,101583.17
2018-07-07T14:21:22.842Z,101584.58
2018-07-07T14:24:27.697Z,101582.01
2018-07-07T14:27:33.334Z,101583.66
2018-07-07T14:30:38.434Z,101583.86
2018-07-07T14:33:44.057Z,101570.25
2018-07-07T14:36:50.534Z,101561.78
2018-07-07T14:39:58.395Z,101569.76
2018-07-07T14:43:04.558Z,101564.66
2018-07-07T14:46:09.637Z,101569.70
2018-07-07T14:49:15.723Z,101572.33
2018-07-07T14:52:20.887Z,101569.22
2018-07-07T14:55:27.451Z,101581.91
2018-07-07T14:58:33.467Z,101572.04
2018-07-07T15:01:40.344Z,101572.72
2018-07-07T15:04:47.483Z,101572.72
2018-07-07T15:07:53.513Z,101577.14
2018-07-07T15:10:58.697Z,101586.22
2018-07-07T15:14:05.045Z,101585.16
2018-07-07T15:17:11.206Z,101588.12
2018-07-07T15:20:17.244Z,101590.27
2018-07-07T15:23:22.368Z,101586.56
2018-07-07T15:26:27.490Z,101583.94
2018-07-07T15:29:32.626Z,101584.53
2018-07-07T15:32:38.389Z,101578.80
2018-07-07T15:35:44.795Z,101576.55
2018-07-07T15:38:50.506Z,101578.69
2018-07-07T15:41:56.529Z,101577.08
2018-07-07T15:45:02.789Z,101578.45
2018-07-07T15:48:08.883Z,101577.86
2018-07-07T15:51:15.297Z,101570.73
2018-07-07T15:54:21.555Z,101573.50
2018-07-07T15:57:26.397Z,101578.55
2018-07-07T16:00:32.653Z,101570.14
2018-07-07T16:03:38.389Z,101574.08
2018-07-07T16:06:44.951Z,101566.95
2018-07-07T16:09:50.868Z,101573.94
2018-07-07T16:12:56.093Z,101582.64
2018-07-07T16:16:01.193Z,101573.99
2018-07-07T16:19:06.285Z,101576.22
2018-07-07T16:22:11.720Z,101578.76
2018-07-07T16:25:17.166Z,101570.43
2018-07-07T16:28:24.301Z,101565.37
2018-07-07T16:31:30.015Z,101565.66
2018-07-07T16:34:36.092Z,101566.80
2018-07-07T16:37:43.569Z,101558.04
2018-07-07T16:40:50.896Z,101570.99
2018-07-07T16:43:56.834Z,101565.45
2018-07-07T16:47:03.866Z,101565.66
2018-07-07T16:50:09.943Z,101555.64
2018-07-07T16:53:16.617Z,101564.03
2018-07-07T16:56:22.909Z,101555.75
2018-07-07T16:59:30.304Z,101551.45
2018-07-07T17:02:37.151Z,101560.52
2018-07-07T17:05:43.633Z,101552.52
2018-07-07T17:08:49.189Z,101563.13
2018-07-07T17:11:54.451Z,101558.88
2018-07-07T17:15:00.247Z,101554.46
2018-07-07T17:18:06.471Z,101558.34
2018-07-07T17:21:12.018Z,101554.97
2018-07-07T17:24:18.109Z,101557.40
2018-07-07T17:27:24.930Z,101562.30
2018-07-07T17:30:29.858Z,101562.72
2018-07-07T17:33:34.864Z,101562.55
2018-07-07T17:36:40.548Z,101564.45
2018-07-07T17:39:45.658Z,101558.53
2018-07-07T17:42:52.255Z,101564.52
2018-07-07T17:45:57.889Z,101565.39
2018-07-07T17:49:03.941Z,101565.42
2018-07-07T17:52:09.971Z,101570.81
2018-07-07T17:55:16.654Z,101572.60
2018-07-07T17:58:22.536Z,101575.72
2018-07-07T18:01:27.632Z,101575.50
2018-07-07T18:04:34.393Z,101575.02
2018-07-07T18:07:40.376Z,101570.38
2018-07-07T18:10:45.805Z,101573.36
2018-07-07T18:13:52.269Z,101580.50
2018-07-07T18:16:57.958Z,101575.64
2018-07-07T18:20:03.899Z,101576.93
2018-07-07T18:23:09.894Z,101571.97
2018-07-07T18:26:15.332Z,101563.39
2018-07-07T18:29:21.682Z,101564.47
2018-07-07T18:32:27.767Z,101569.78
2018-07-07T18:35:33.913Z,101569.73
2018-07-07T18:38:40.950Z,101563.81
2018-07-07T18:41:47.026Z,101570.19
2018-07-07T18:44:53.100Z,101567.55
2018-07-07T18:47:58.463Z,101574.16
2018-07-07T18:51:04.466Z,101580.31
2018-07-07T18:54:10.495Z,101585.13
2018-07-07T18:57:15.934Z,101580.95
2018-07-07T19:00:21.372Z,101578.17
2018-07-07T19:03:27.279Z,101579.11
2018-07-07T19:06:32.718Z,101585.10
2018-07-07T19:09:37.788Z,101588.13
2018-07-07T19:12:43.907Z,101585.35
2018-07-07T19:15:50.134Z,101585.50
2018-07-07T19:18:56.069Z,101597.06
2018-07-07T19:22:06.478Z,101597.14
2018-07-07T19:27:23.102Z,101599.81
2018-07-07T19:30:28.675Z,101600.88
2018-07-07T19:33:39.085Z,101598.69
2018-07-07T19:36:50.917Z,101601.41
2018-07-07T19:39:56.033Z,101601.16
2018-07-07T19:43:02.018Z,101600.37
2018-07-07T19:46:08.161Z,101602.61
2018-07-07T19:49:15.461Z,101612.52
2018-07-07T19:52:22.176Z,101610.63
2018-07-07T19:55:29.549Z,101611.70
2018-07-07T19:58:35.905Z,101608.73
2018-07-07T20:01:42.081Z,101612.04
2018-07-07T20:04:49.293Z,101609.46
2018-07-07T20:07:56.179Z,101610.14
2018-07-07T20:11:03.298Z,101608.22
2018-07-07T20:14:09.368Z,101610.47
2018-07-07T20:17:18.046Z,101611.22
2018-07-07T20:20:34.654Z,101607.37
2018-07-07T20:23:40.654Z,101607.38
2018-07-07T20:26:51.410Z,101606.86
2018-07-07T20:29:57.015Z,101613.53
2018-07-07T20:33:02.434Z,101607.61
2018-07-07T20:36:08.510Z,101612.61
2018-07-07T20:39:13.866Z,101614.67
2018-07-07T20:42:19.972Z,101616.07
2018-07-07T20:45:26.329Z,101609.41
2018-07-07T20:48:32.483Z,101609.77
2018-07-07T20:51:38.305Z,101603.02
2018-07-07T20:54:43.422Z,101609.72
2018-07-07T20:57:48.537Z,101602.83
2018-07-07T21:00:53.625Z,101602.76
2018-07-07T21:03:59.429Z,101603.77
2018-07-07T21:07:05.168Z,101603.13
2018-07-07T21:10:10.253Z,101602.46
2018-07-07T21:13:16.961Z,101599.33
2018-07-07T21:16:23.268Z,101599.03
2018-07-07T21:19:30.170Z,101598.98
2018-07-07T21:22:35.907Z,101604.81
2018-07-07T21:25:42.013Z,101610.44
2018-07-07T21:28:48.383Z,101613.44
2018-07-07T21:31:54.190Z,101608.69
2018-07-07T21:34:59.053Z,101614.77
2018-07-07T21:38:04.902Z,101615.33
2018-07-07T21:41:12.345Z,101620.23
2018-07-07T21:44:18.079Z,101613.91
2018-07-07T21:47:24.749Z,101617.66
2018-07-07T21:50:30.880Z,101612.39
2018-07-07T21:53:37.543Z,101629.69
2018-07-07T21:56:43.119Z,101624.59
2018-07-07T21:59:48.235Z,101629.69
2018-07-07T22:02:59.563Z,101630.66
2018-07-07T22:06:08.221Z,101630.53
2018-07-07T22:09:14.622Z,101630.70
2018-07-07T22:12:21.058Z,101619.32
2018-07-07T22:15:26.397Z,101617.14
2018-07-07T22:18:31.641Z,101622.27
2018-07-07T22:22:09.123Z,101624.84
2018-07-07T22:25:14.929Z,101625.77
2018-07-07T22:28:20.282Z,101624.47
2018-07-07T22:31:25.789Z,101623.31
2018-07-07T22:34:39.374Z,101624.84
2018-07-07T22:37:45.420Z,101624.23
2018-07-07T22:40:51.597Z,101615.17
2018-07-07T22:43:58.515Z,101613.40
2018-07-07T22:47:03.725Z,101610.45
2018-07-07T22:50:09.807Z,101609.69
2018-07-07T22:53:15.329Z,101605.95
2018-07-07T22:56:21.383Z,101603.02
2018-07-07T22:59:27.537Z,101606.61
2018-07-07T23:02:32.953Z,101596.59
2018-07-07T23:05:38.181Z,101601.14
2018-07-07T23:08:44.177Z,101593.37
2018-07-07T23:11:49.489Z,101598.27
2018-07-07T23:14:54.634Z,101598.38
2018-07-07T23:18:00.832Z,101598.55
2018-07-07T23:21:06.278Z,101604.60
2018-07-07T23:24:13.599Z,101596.17
2018-07-07T23:27:19.321Z,101597.93
2018-07-07T23:30:24.906Z,101597.72
2018-07-07T23:33:30.300Z,101602.66
2018-07-07T23:36:36.149Z,101597.72
2018-07-07T23:39:41.309Z,101600.61
2018-07-07T23:42:47.545Z,101590.44
2018-07-07T23:45:54.346Z,101588.39
2018-07-07T23:49:02.306Z,101590.23
2018-07-07T23:52:09.626Z,101591.06
2018-07-07T23:55:15.293Z,101592.03
2018-07-07T23:58:20.712Z,101590.53
